< < Back
Terminal Aerodrome Forecast


Current Version              Previous Versions:   1  2  3  4  5  6  7  8  9  

Terminal Aerodrome Forecast

184
FTUS42 KGSP 011120
TAFGSP
TAF
KGSP 011120Z 0112/0212 01004KT P6SM FEW080
     FM020300 31003KT P6SM FEW060
     FM020900 01004KT P6SM FEW060=

Latest METAR

502
SAUS70 KWBC 020400 RRF
MTRGSP
METAR KGSP 020353Z AUTO 36003KT 10SM CLR 25/13 A2995 RMK AO2 SLP126
T02500133


USA.gov is the U.S. government's official web portal to all federal, state and local government web resources and services.